sensor_id;sensor_type;location;lat;lon;timestamp;P1;durP1;ratioP1;P2;durP2;ratioP2
40707;SDS011;26392;42.696;23.350;2022-11-20T00:00:39;12.02;;;7.38;;
40707;SDS011;26392;42.696;23.350;2022-11-20T00:03:04;13.02;;;4.60;;
40707;SDS011;26392;42.696;23.350;2022-11-20T00:05:31;6.50;;;4.07;;
40707;SDS011;26392;42.696;23.350;2022-11-20T00:07:57;9.68;;;4.90;;
40707;SDS011;26392;42.696;23.350;2022-11-20T00:10:23;11.65;;;4.30;;
40707;SDS011;26392;42.696;23.350;2022-11-20T00:12:48;4.07;;;2.60;;
40707;SDS011;26392;42.696;23.350;2022-11-20T00:15:13;15.80;;;4.57;;
40707;SDS011;26392;42.696;23.350;2022-11-20T00:17:39;9.65;;;5.13;;
40707;SDS011;26392;42.696;23.350;2022-11-20T00:20:04;8.73;;;5.05;;
40707;SDS011;26392;42.696;23.350;2022-11-20T00:22:30;10.07;;;5.75;;
40707;SDS011;26392;42.696;23.350;2022-11-20T00:24:55;12.05;;;7.15;;
40707;SDS011;26392;42.696;23.350;2022-11-20T00:27:22;15.23;;;5.65;;
40707;SDS011;26392;42.696;23.350;2022-11-20T00:29:48;11.45;;;4.57;;
40707;SDS011;26392;42.696;23.350;2022-11-20T00:32:13;7.40;;;4.47;;
40707;SDS011;26392;42.696;23.350;2022-11-20T00:34:39;8.40;;;4.50;;
40707;SDS011;26392;42.696;23.350;2022-11-20T00:37:04;14.02;;;4.53;;
40707;SDS011;26392;42.696;23.350;2022-11-20T00:39:29;8.30;;;4.45;;
40707;SDS011;26392;42.696;23.350;2022-11-20T00:41:55;12.77;;;5.15;;
40707;SDS011;26392;42.696;23.350;2022-11-20T00:44:20;11.60;;;4.18;;
40707;SDS011;26392;42.696;23.350;2022-11-20T00:46:45;6.32;;;2.60;;
40707;SDS011;26392;42.696;23.350;2022-11-20T00:49:11;6.05;;;3.50;;
40707;SDS011;26392;42.696;23.350;2022-11-20T00:51:36;9.70;;;2.97;;
40707;SDS011;26392;42.696;23.350;2022-11-20T00:54:02;8.05;;;2.22;;
40707;SDS011;26392;42.696;23.350;2022-11-20T00:56:27;3.42;;;2.00;;
40707;SDS011;26392;42.696;23.350;2022-11-20T00:58:53;4.43;;;1.73;;
40707;SDS011;26392;42.696;23.350;2022-11-20T01:01:20;7.80;;;2.67;;
40707;SDS011;26392;42.696;23.350;2022-11-20T01:03:49;3.95;;;2.50;;
40707;SDS011;26392;42.696;23.350;2022-11-20T01:06:16;4.88;;;2.72;;
40707;SDS011;26392;42.696;23.350;2022-11-20T01:08:44;2.92;;;1.80;;
40707;SDS011;26392;42.696;23.350;2022-11-20T01:11:11;3.30;;;1.77;;
40707;SDS011;26392;42.696;23.350;2022-11-20T01:13:41;3.15;;;2.03;;
40707;SDS011;26392;42.696;23.350;2022-11-20T01:16:09;8.32;;;2.30;;
40707;SDS011;26392;42.696;23.350;2022-11-20T01:18:35;6.45;;;2.15;;
40707;SDS011;26392;42.696;23.350;2022-11-20T01:21:04;4.72;;;2.17;;
40707;SDS011;26392;42.696;23.350;2022-11-20T01:23:35;2.20;;;1.40;;
40707;SDS011;26392;42.696;23.350;2022-11-20T01:26:03;5.18;;;1.45;;
40707;SDS011;26392;42.696;23.350;2022-11-20T01:28:30;4.00;;;1.10;;
40707;SDS011;26392;42.696;23.350;2022-11-20T01:30:56;2.17;;;1.25;;
40707;SDS011;26392;42.696;23.350;2022-11-20T01:33:21;7.00;;;1.30;;
40707;SDS011;26392;42.696;23.350;2022-11-20T01:35:47;2.45;;;1.40;;
40707;SDS011;26392;42.696;23.350;2022-11-20T01:38:12;1.92;;;1.10;;
40707;SDS011;26392;42.696;23.350;2022-11-20T01:40:37;3.13;;;0.90;;
40707;SDS011;26392;42.696;23.350;2022-11-20T01:43:12;2.97;;;1.15;;
40707;SDS011;26392;42.696;23.350;2022-11-20T01:48:31;2.95;;;1.20;;
40707;SDS011;26392;42.696;23.350;2022-11-20T01:51:13;3.40;;;2.00;;
40707;SDS011;26392;42.696;23.350;2022-11-20T01:53:43;4.85;;;2.03;;
40707;SDS011;26392;42.696;23.350;2022-11-20T01:56:11;2.53;;;1.77;;
40707;SDS011;26392;42.696;23.350;2022-11-20T01:58:39;3.30;;;1.73;;
40707;SDS011;26392;42.696;23.350;2022-11-20T02:01:09;3.28;;;1.60;;
40707;SDS011;26392;42.696;23.350;2022-11-20T02:03:35;2.33;;;1.50;;
40707;SDS011;26392;42.696;23.350;2022-11-20T02:08:37;2.28;;;1.10;;
40707;SDS011;26392;42.696;23.350;2022-11-20T02:11:03;4.85;;;1.48;;
40707;SDS011;26392;42.696;23.350;2022-11-20T02:13:28;2.90;;;1.30;;
40707;SDS011;26392;42.696;23.350;2022-11-20T02:16:31;2.20;;;1.13;;
40707;SDS011;26392;42.696;23.350;2022-11-20T02:19:04;2.20;;;1.20;;
40707;SDS011;26392;42.696;23.350;2022-11-20T02:21:39;3.88;;;1.90;;
40707;SDS011;26392;42.696;23.350;2022-11-20T02:24:14;2.23;;;1.00;;
40707;SDS011;26392;42.696;23.350;2022-11-20T02:26:50;5.80;;;1.35;;
40707;SDS011;26392;42.696;23.350;2022-11-20T02:29:22;1.75;;;1.25;;
40707;SDS011;26392;42.696;23.350;2022-11-20T02:31:50;2.33;;;1.05;;
40707;SDS011;26392;42.696;23.350;2022-11-20T02:34:17;2.72;;;1.05;;
40707;SDS011;26392;42.696;23.350;2022-11-20T02:36:42;1.92;;;0.98;;
40707;SDS011;26392;42.696;23.350;2022-11-20T02:39:09;4.60;;;1.30;;
40707;SDS011;26392;42.696;23.350;2022-11-20T02:41:37;2.63;;;1.13;;
40707;SDS011;26392;42.696;23.350;2022-11-20T02:44:04;1.27;;;1.00;;
40707;SDS011;26392;42.696;23.350;2022-11-20T02:46:31;2.90;;;0.80;;
40707;SDS011;26392;42.696;23.350;2022-11-20T02:48:57;4.95;;;1.17;;
40707;SDS011;26392;42.696;23.350;2022-11-20T02:51:23;1.80;;;1.05;;
40707;SDS011;26392;42.696;23.350;2022-11-20T02:53:48;5.60;;;1.45;;
40707;SDS011;26392;42.696;23.350;2022-11-20T02:56:14;1.85;;;1.00;;
40707;SDS011;26392;42.696;23.350;2022-11-20T02:58:40;3.65;;;1.30;;
40707;SDS011;26392;42.696;23.350;2022-11-20T03:01:06;2.72;;;0.90;;
40707;SDS011;26392;42.696;23.350;2022-11-20T03:03:31;4.97;;;1.00;;
40707;SDS011;26392;42.696;23.350;2022-11-20T03:05:58;3.65;;;0.95;;
40707;SDS011;26392;42.696;23.350;2022-11-20T03:08:24;1.45;;;0.85;;
40707;SDS011;26392;42.696;23.350;2022-11-20T03:10:50;3.15;;;1.13;;
40707;SDS011;26392;42.696;23.350;2022-11-20T03:13:15;4.80;;;1.23;;
40707;SDS011;26392;42.696;23.350;2022-11-20T03:15:40;1.75;;;0.95;;
40707;SDS011;26392;42.696;23.350;2022-11-20T03:18:06;1.77;;;1.20;;
40707;SDS011;26392;42.696;23.350;2022-11-20T03:20:32;4.00;;;1.20;;
40707;SDS011;26392;42.696;23.350;2022-11-20T03:22:58;4.50;;;1.00;;
40707;SDS011;26392;42.696;23.350;2022-11-20T03:25:24;1.20;;;1.10;;
40707;SDS011;26392;42.696;23.350;2022-11-20T03:27:49;4.00;;;1.23;;
40707;SDS011;26392;42.696;23.350;2022-11-20T03:30:15;2.05;;;1.00;;
40707;SDS011;26392;42.696;23.350;2022-11-20T03:32:40;1.98;;;1.13;;
40707;SDS011;26392;42.696;23.350;2022-11-20T03:35:06;2.13;;;0.88;;
40707;SDS011;26392;42.696;23.350;2022-11-20T03:37:32;2.88;;;0.93;;
40707;SDS011;26392;42.696;23.350;2022-11-20T03:39:57;6.32;;;1.40;;
40707;SDS011;26392;42.696;23.350;2022-11-20T03:42:23;2.55;;;0.90;;
40707;SDS011;26392;42.696;23.350;2022-11-20T03:45:06;1.48;;;0.93;;
40707;SDS011;26392;42.696;23.350;2022-11-20T03:47:32;1.58;;;1.10;;
40707;SDS011;26392;42.696;23.350;2022-11-20T03:49:58;1.70;;;1.02;;
40707;SDS011;26392;42.696;23.350;2022-11-20T03:52:23;0.73;;;0.73;;
40707;SDS011;26392;42.696;23.350;2022-11-20T03:54:48;2.10;;;1.00;;
40707;SDS011;26392;42.696;23.350;2022-11-20T03:57:14;4.63;;;1.20;;
40707;SDS011;26392;42.696;23.350;2022-11-20T03:59:39;7.10;;;1.50;;
40707;SDS011;26392;42.696;23.350;2022-11-20T04:02:04;1.52;;;0.88;;
40707;SDS011;26392;42.696;23.350;2022-11-20T04:04:30;2.33;;;0.90;;
40707;SDS011;26392;42.696;23.350;2022-11-20T04:06:55;1.60;;;1.05;;
40707;SDS011;26392;42.696;23.350;2022-11-20T04:09:20;1.42;;;1.00;;
40707;SDS011;26392;42.696;23.350;2022-11-20T04:11:46;5.10;;;1.00;;
40707;SDS011;26392;42.696;23.350;2022-11-20T04:14:12;2.05;;;1.13;;
40707;SDS011;26392;42.696;23.350;2022-11-20T04:16:38;2.15;;;1.30;;
40707;SDS011;26392;42.696;23.350;2022-11-20T04:19:05;2.78;;;1.10;;
40707;SDS011;26392;42.696;23.350;2022-11-20T04:21:31;2.92;;;1.20;;
40707;SDS011;26392;42.696;23.350;2022-11-20T04:23:57;6.35;;;1.35;;
40707;SDS011;26392;42.696;23.350;2022-11-20T04:26:23;4.28;;;1.40;;
40707;SDS011;26392;42.696;23.350;2022-11-20T04:28:50;7.65;;;1.45;;
40707;SDS011;26392;42.696;23.350;2022-11-20T04:31:26;4.65;;;1.33;;
40707;SDS011;26392;42.696;23.350;2022-11-20T04:33:53;2.58;;;1.27;;
40707;SDS011;26392;42.696;23.350;2022-11-20T04:36:23;4.20;;;1.20;;
40707;SDS011;26392;42.696;23.350;2022-11-20T04:38:50;6.57;;;1.48;;
40707;SDS011;26392;42.696;23.350;2022-11-20T04:41:20;2.03;;;1.02;;
40707;SDS011;26392;42.696;23.350;2022-11-20T04:43:47;2.40;;;0.88;;
40707;SDS011;26392;42.696;23.350;2022-11-20T04:46:17;2.70;;;1.02;;
40707;SDS011;26392;42.696;23.350;2022-11-20T04:48:44;5.40;;;1.02;;
40707;SDS011;26392;42.696;23.350;2022-11-20T04:51:10;3.92;;;0.90;;
40707;SDS011;26392;42.696;23.350;2022-11-20T04:53:35;9.18;;;1.30;;
40707;SDS011;26392;42.696;23.350;2022-11-20T04:56:01;5.60;;;1.42;;
40707;SDS011;26392;42.696;23.350;2022-11-20T04:58:28;2.17;;;0.88;;
40707;SDS011;26392;42.696;23.350;2022-11-20T05:01:00;3.45;;;1.10;;
40707;SDS011;26392;42.696;23.350;2022-11-20T05:03:29;4.30;;;1.30;;
40707;SDS011;26392;42.696;23.350;2022-11-20T05:05:55;6.53;;;1.48;;
40707;SDS011;26392;42.696;23.350;2022-11-20T05:08:20;4.30;;;1.10;;
40707;SDS011;26392;42.696;23.350;2022-11-20T05:10:46;2.47;;;1.00;;
40707;SDS011;26392;42.696;23.350;2022-11-20T05:13:11;1.08;;;0.98;;
40707;SDS011;26392;42.696;23.350;2022-11-20T05:15:36;3.22;;;1.23;;
40707;SDS011;26392;42.696;23.350;2022-11-20T05:18:02;1.85;;;1.15;;
40707;SDS011;26392;42.696;23.350;2022-11-20T05:20:27;2.83;;;1.15;;
40707;SDS011;26392;42.696;23.350;2022-11-20T05:22:56;7.50;;;1.40;;
40707;SDS011;26392;42.696;23.350;2022-11-20T05:25:21;4.57;;;1.23;;
40707;SDS011;26392;42.696;23.350;2022-11-20T05:27:47;1.45;;;1.00;;
40707;SDS011;26392;42.696;23.350;2022-11-20T05:30:12;5.40;;;1.33;;
40707;SDS011;26392;42.696;23.350;2022-11-20T05:32:38;3.40;;;1.02;;
40707;SDS011;26392;42.696;23.350;2022-11-20T05:35:03;3.00;;;1.10;;
40707;SDS011;26392;42.696;23.350;2022-11-20T05:37:29;2.38;;;1.30;;
40707;SDS011;26392;42.696;23.350;2022-11-20T05:39:54;2.00;;;1.20;;
40707;SDS011;26392;42.696;23.350;2022-11-20T05:42:20;5.40;;;1.48;;
40707;SDS011;26392;42.696;23.350;2022-11-20T05:44:58;2.03;;;1.30;;
40707;SDS011;26392;42.696;23.350;2022-11-20T05:47:23;2.78;;;1.20;;
40707;SDS011;26392;42.696;23.350;2022-11-20T05:49:49;7.88;;;1.80;;
40707;SDS011;26392;42.696;23.350;2022-11-20T05:52:15;9.25;;;1.90;;
40707;SDS011;26392;42.696;23.350;2022-11-20T05:54:40;3.88;;;1.52;;
40707;SDS011;26392;42.696;23.350;2022-11-20T05:57:06;6.80;;;1.65;;
40707;SDS011;26392;42.696;23.350;2022-11-20T05:59:31;5.93;;;1.65;;
40707;SDS011;26392;42.696;23.350;2022-11-20T06:01:56;5.20;;;1.73;;
40707;SDS011;26392;42.696;23.350;2022-11-20T06:04:22;5.05;;;1.90;;
40707;SDS011;26392;42.696;23.350;2022-11-20T06:06:47;5.18;;;1.48;;
40707;SDS011;26392;42.696;23.350;2022-11-20T06:09:12;5.18;;;1.73;;
40707;SDS011;26392;42.696;23.350;2022-11-20T06:11:38;3.10;;;1.10;;
40707;SDS011;26392;42.696;23.350;2022-11-20T06:14:03;3.13;;;1.25;;
40707;SDS011;26392;42.696;23.350;2022-11-20T06:16:29;3.38;;;1.10;;
40707;SDS011;26392;42.696;23.350;2022-11-20T06:18:54;3.42;;;1.30;;
40707;SDS011;26392;42.696;23.350;2022-11-20T06:21:20;1.83;;;1.10;;
40707;SDS011;26392;42.696;23.350;2022-11-20T06:23:47;5.82;;;1.20;;
40707;SDS011;26392;42.696;23.350;2022-11-20T06:26:27;5.45;;;1.17;;
40707;SDS011;26392;42.696;23.350;2022-11-20T06:28:53;3.20;;;1.40;;
40707;SDS011;26392;42.696;23.350;2022-11-20T06:31:21;2.58;;;1.17;;
40707;SDS011;26392;42.696;23.350;2022-11-20T06:33:48;5.40;;;1.40;;
40707;SDS011;26392;42.696;23.350;2022-11-20T06:36:15;7.80;;;1.77;;
40707;SDS011;26392;42.696;23.350;2022-11-20T06:38:42;3.55;;;1.20;;
40707;SDS011;26392;42.696;23.350;2022-11-20T06:41:12;3.22;;;1.30;;
40707;SDS011;26392;42.696;23.350;2022-11-20T06:43:40;5.40;;;1.70;;
40707;SDS011;26392;42.696;23.350;2022-11-20T06:46:06;9.70;;;1.52;;
40707;SDS011;26392;42.696;23.350;2022-11-20T06:48:32;3.17;;;1.35;;
40707;SDS011;26392;42.696;23.350;2022-11-20T06:50:57;3.42;;;1.42;;
40707;SDS011;26392;42.696;23.350;2022-11-20T06:53:23;5.30;;;1.60;;
40707;SDS011;26392;42.696;23.350;2022-11-20T06:55:49;6.65;;;1.50;;
40707;SDS011;26392;42.696;23.350;2022-11-20T06:58:16;5.03;;;1.52;;
40707;SDS011;26392;42.696;23.350;2022-11-20T07:00:42;7.65;;;1.40;;
40707;SDS011;26392;42.696;23.350;2022-11-20T07:03:08;5.82;;;2.17;;
40707;SDS011;26392;42.696;23.350;2022-11-20T07:05:35;8.07;;;1.88;;
40707;SDS011;26392;42.696;23.350;2022-11-20T07:08:01;8.10;;;1.52;;
40707;SDS011;26392;42.696;23.350;2022-11-20T07:10:28;7.68;;;1.60;;
40707;SDS011;26392;42.696;23.350;2022-11-20T07:12:53;4.68;;;1.38;;
40707;SDS011;26392;42.696;23.350;2022-11-20T07:15:19;4.53;;;1.23;;
40707;SDS011;26392;42.696;23.350;2022-11-20T07:17:46;2.60;;;1.20;;
40707;SDS011;26392;42.696;23.350;2022-11-20T07:20:12;2.22;;;1.00;;
40707;SDS011;26392;42.696;23.350;2022-11-20T07:22:38;1.67;;;1.13;;
40707;SDS011;26392;42.696;23.350;2022-11-20T07:25:03;4.32;;;1.23;;
40707;SDS011;26392;42.696;23.350;2022-11-20T07:27:29;3.60;;;1.35;;
40707;SDS011;26392;42.696;23.350;2022-11-20T07:29:55;3.90;;;1.75;;
40707;SDS011;26392;42.696;23.350;2022-11-20T07:32:20;4.32;;;1.35;;
40707;SDS011;26392;42.696;23.350;2022-11-20T07:34:46;2.47;;;1.52;;
40707;SDS011;26392;42.696;23.350;2022-11-20T07:37:12;2.65;;;1.70;;
40707;SDS011;26392;42.696;23.350;2022-11-20T07:39:37;4.28;;;1.88;;
40707;SDS011;26392;42.696;23.350;2022-11-20T07:42:03;5.82;;;1.55;;
40707;SDS011;26392;42.696;23.350;2022-11-20T07:44:28;2.63;;;1.40;;
40707;SDS011;26392;42.696;23.350;2022-11-20T07:46:53;7.45;;;2.05;;
40707;SDS011;26392;42.696;23.350;2022-11-20T07:49:19;6.18;;;2.63;;
40707;SDS011;26392;42.696;23.350;2022-11-20T07:51:44;6.47;;;2.65;;
40707;SDS011;26392;42.696;23.350;2022-11-20T07:54:09;9.38;;;3.15;;
40707;SDS011;26392;42.696;23.350;2022-11-20T07:56:35;8.15;;;2.88;;
40707;SDS011;26392;42.696;23.350;2022-11-20T07:59:00;8.32;;;3.13;;
40707;SDS011;26392;42.696;23.350;2022-11-20T08:01:25;3.80;;;2.47;;
40707;SDS011;26392;42.696;23.350;2022-11-20T08:03:51;9.55;;;2.88;;
40707;SDS011;26392;42.696;23.350;2022-11-20T08:06:16;13.48;;;3.35;;
40707;SDS011;26392;42.696;23.350;2022-11-20T08:08:43;5.32;;;2.50;;
40707;SDS011;26392;42.696;23.350;2022-11-20T08:11:09;5.78;;;2.42;;
40707;SDS011;26392;42.696;23.350;2022-11-20T08:13:53;10.95;;;3.22;;
40707;SDS011;26392;42.696;23.350;2022-11-20T08:16:37;4.53;;;1.98;;
40707;SDS011;26392;42.696;23.350;2022-11-20T08:19:03;4.43;;;2.40;;
40707;SDS011;26392;42.696;23.350;2022-11-20T08:21:29;10.75;;;2.10;;
40707;SDS011;26392;42.696;23.350;2022-11-20T08:23:55;3.95;;;2.25;;
40707;SDS011;26392;42.696;23.350;2022-11-20T08:26:21;3.30;;;1.92;;
40707;SDS011;26392;42.696;23.350;2022-11-20T08:28:47;4.13;;;1.65;;
40707;SDS011;26392;42.696;23.350;2022-11-20T08:31:12;6.43;;;1.52;;
40707;SDS011;26392;42.696;23.350;2022-11-20T08:33:38;9.95;;;2.08;;
40707;SDS011;26392;42.696;23.350;2022-11-20T08:36:03;4.10;;;2.03;;
40707;SDS011;26392;42.696;23.350;2022-11-20T08:38:30;6.70;;;2.30;;
40707;SDS011;26392;42.696;23.350;2022-11-20T08:40:59;6.32;;;2.47;;
40707;SDS011;26392;42.696;23.350;2022-11-20T08:43:44;14.25;;;2.58;;
40707;SDS011;26392;42.696;23.350;2022-11-20T08:46:10;8.30;;;2.90;;
40707;SDS011;26392;42.696;23.350;2022-11-20T08:48:35;9.30;;;3.10;;
40707;SDS011;26392;42.696;23.350;2022-11-20T08:51:01;8.23;;;2.88;;
40707;SDS011;26392;42.696;23.350;2022-11-20T08:53:26;9.57;;;1.95;;
40707;SDS011;26392;42.696;23.350;2022-11-20T08:55:52;3.03;;;1.30;;
40707;SDS011;26392;42.696;23.350;2022-11-20T08:58:18;5.85;;;2.45;;
40707;SDS011;26392;42.696;23.350;2022-11-20T09:00:43;5.85;;;1.90;;
40707;SDS011;26392;42.696;23.350;2022-11-20T09:03:09;5.65;;;1.73;;
40707;SDS011;26392;42.696;23.350;2022-11-20T09:05:34;4.28;;;1.77;;
40707;SDS011;26392;42.696;23.350;2022-11-20T09:07:59;6.13;;;1.88;;
40707;SDS011;26392;42.696;23.350;2022-11-20T09:10:28;7.07;;;1.77;;
40707;SDS011;26392;42.696;23.350;2022-11-20T09:12:53;4.38;;;2.00;;
40707;SDS011;26392;42.696;23.350;2022-11-20T09:15:20;6.25;;;3.13;;
40707;SDS011;26392;42.696;23.350;2022-11-20T09:17:56;8.02;;;2.45;;
40707;SDS011;26392;42.696;23.350;2022-11-20T09:20:26;4.25;;;2.83;;
40707;SDS011;26392;42.696;23.350;2022-11-20T09:22:53;6.30;;;2.92;;
40707;SDS011;26392;42.696;23.350;2022-11-20T09:25:19;4.35;;;2.72;;
40707;SDS011;26392;42.696;23.350;2022-11-20T09:27:44;11.18;;;2.97;;
40707;SDS011;26392;42.696;23.350;2022-11-20T09:30:11;5.47;;;1.73;;
40707;SDS011;26392;42.696;23.350;2022-11-20T09:32:38;6.43;;;2.05;;
40707;SDS011;26392;42.696;23.350;2022-11-20T09:35:04;6.28;;;1.77;;
40707;SDS011;26392;42.696;23.350;2022-11-20T09:37:29;4.43;;;1.70;;
40707;SDS011;26392;42.696;23.350;2022-11-20T09:39:55;2.72;;;1.63;;
40707;SDS011;26392;42.696;23.350;2022-11-20T09:50:15;2.30;;;1.25;;
40707;SDS011;26392;42.696;23.350;2022-11-20T09:52:47;8.80;;;4.25;;
40707;SDS011;26392;42.696;23.350;2022-11-20T09:55:15;7.40;;;2.60;;
40707;SDS011;26392;42.696;23.350;2022-11-20T09:57:42;7.20;;;3.03;;
40707;SDS011;26392;42.696;23.350;2022-11-20T10:00:11;7.43;;;2.65;;
40707;SDS011;26392;42.696;23.350;2022-11-20T10:02:46;6.45;;;3.35;;
40707;SDS011;26392;42.696;23.350;2022-11-20T10:05:38;6.78;;;3.47;;
40707;SDS011;26392;42.696;23.350;2022-11-20T10:16:09;12.35;;;4.50;;
40707;SDS011;26392;42.696;23.350;2022-11-20T10:18:57;8.38;;;3.50;;
40707;SDS011;26392;42.696;23.350;2022-11-20T10:30:24;8.20;;;3.10;;
40707;SDS011;26392;42.696;23.350;2022-11-20T10:32:54;5.32;;;2.22;;
40707;SDS011;26392;42.696;23.350;2022-11-20T10:35:27;8.25;;;2.60;;
40707;SDS011;26392;42.696;23.350;2022-11-20T10:38:00;3.40;;;2.58;;
40707;SDS011;26392;42.696;23.350;2022-11-20T10:40:32;13.60;;;3.55;;
40707;SDS011;26392;42.696;23.350;2022-11-20T10:43:08;8.05;;;3.35;;
40707;SDS011;26392;42.696;23.350;2022-11-20T10:48:45;15.90;;;7.70;;
40707;SDS011;26392;42.696;23.350;2022-11-20T10:56:44;9.43;;;3.42;;
40707;SDS011;26392;42.696;23.350;2022-11-20T11:02:14;13.75;;;4.60;;
40707;SDS011;26392;42.696;23.350;2022-11-20T11:04:43;15.63;;;6.82;;
40707;SDS011;26392;42.696;23.350;2022-11-20T11:07:22;15.23;;;7.23;;
40707;SDS011;26392;42.696;23.350;2022-11-20T11:09:54;10.75;;;3.97;;
40707;SDS011;26392;42.696;23.350;2022-11-20T11:12:22;9.85;;;2.78;;
40707;SDS011;26392;42.696;23.350;2022-11-20T11:14:53;6.53;;;2.20;;
40707;SDS011;26392;42.696;23.350;2022-11-20T11:20:00;5.63;;;1.55;;
40707;SDS011;26392;42.696;23.350;2022-11-20T11:22:28;7.30;;;1.92;;
40707;SDS011;26392;42.696;23.350;2022-11-20T11:24:56;4.38;;;2.20;;
40707;SDS011;26392;42.696;23.350;2022-11-20T11:27:21;3.92;;;1.58;;
40707;SDS011;26392;42.696;23.350;2022-11-20T11:29:47;2.95;;;1.42;;
40707;SDS011;26392;42.696;23.350;2022-11-20T11:32:17;2.70;;;1.25;;
40707;SDS011;26392;42.696;23.350;2022-11-20T11:34:57;5.95;;;1.27;;
40707;SDS011;26392;42.696;23.350;2022-11-20T11:37:32;4.63;;;1.50;;
40707;SDS011;26392;42.696;23.350;2022-11-20T11:40:05;3.40;;;1.30;;
40707;SDS011;26392;42.696;23.350;2022-11-20T11:42:35;4.35;;;1.30;;
40707;SDS011;26392;42.696;23.350;2022-11-20T11:45:11;2.63;;;1.23;;
40707;SDS011;26392;42.696;23.350;2022-11-20T11:52:44;6.13;;;1.30;;
40707;SDS011;26392;42.696;23.350;2022-11-20T11:55:15;5.07;;;1.17;;
40707;SDS011;26392;42.696;23.350;2022-11-20T11:57:52;3.35;;;1.50;;
40707;SDS011;26392;42.696;23.350;2022-11-20T12:00:24;4.32;;;1.73;;
40707;SDS011;26392;42.696;23.350;2022-11-20T12:03:00;6.55;;;1.58;;
40707;SDS011;26392;42.696;23.350;2022-11-20T12:05:36;6.60;;;2.40;;
40707;SDS011;26392;42.696;23.350;2022-11-20T12:10:50;5.60;;;1.30;;
40707;SDS011;26392;42.696;23.350;2022-11-20T12:16:13;6.60;;;1.38;;
40707;SDS011;26392;42.696;23.350;2022-11-20T12:18:40;7.10;;;2.03;;
40707;SDS011;26392;42.696;23.350;2022-11-20T12:37:09;6.65;;;1.65;;
40707;SDS011;26392;42.696;23.350;2022-11-20T12:39:55;5.70;;;2.30;;
40707;SDS011;26392;42.696;23.350;2022-11-20T12:42:34;12.93;;;4.45;;
40707;SDS011;26392;42.696;23.350;2022-11-20T12:46:32;6.70;;;1.42;;
40707;SDS011;26392;42.696;23.350;2022-11-20T13:05:25;6.78;;;2.85;;
40707;SDS011;26392;42.696;23.350;2022-11-20T13:08:00;5.90;;;3.85;;
40707;SDS011;26392;42.696;23.350;2022-11-20T13:13:22;6.65;;;3.10;;
40707;SDS011;26392;42.696;23.350;2022-11-20T13:18:40;9.43;;;3.33;;
40707;SDS011;26392;42.696;23.350;2022-11-20T13:21:34;8.82;;;3.00;;
40707;SDS011;26392;42.696;23.350;2022-11-20T13:24:19;7.00;;;3.10;;
40707;SDS011;26392;42.696;23.350;2022-11-20T13:29:38;8.68;;;3.70;;
40707;SDS011;26392;42.696;23.350;2022-11-20T13:32:16;7.82;;;4.13;;
40707;SDS011;26392;42.696;23.350;2022-11-20T13:34:56;9.57;;;3.33;;
40707;SDS011;26392;42.696;23.350;2022-11-20T13:37:28;7.07;;;3.67;;
40707;SDS011;26392;42.696;23.350;2022-11-20T13:42:35;10.15;;;4.38;;
40707;SDS011;26392;42.696;23.350;2022-11-20T13:45:08;6.45;;;3.00;;
40707;SDS011;26392;42.696;23.350;2022-11-20T13:47:49;12.88;;;3.25;;
40707;SDS011;26392;42.696;23.350;2022-11-20T13:50:16;4.10;;;1.45;;
40707;SDS011;26392;42.696;23.350;2022-11-20T13:58:00;8.63;;;3.13;;
40707;SDS011;26392;42.696;23.350;2022-11-20T14:00:44;11.60;;;4.87;;
40707;SDS011;26392;42.696;23.350;2022-11-20T14:03:23;11.63;;;4.07;;
40707;SDS011;26392;42.696;23.350;2022-11-20T14:05:57;10.43;;;3.85;;
40707;SDS011;26392;42.696;23.350;2022-11-20T14:11:45;10.15;;;4.45;;
40707;SDS011;26392;42.696;23.350;2022-11-20T14:14:13;8.73;;;4.00;;
40707;SDS011;26392;42.696;23.350;2022-11-20T14:16:41;15.90;;;7.72;;
40707;SDS011;26392;42.696;23.350;2022-11-20T14:21:45;9.00;;;4.82;;
40707;SDS011;26392;42.696;23.350;2022-11-20T14:24:20;15.63;;;5.95;;
40707;SDS011;26392;42.696;23.350;2022-11-20T14:26:48;8.85;;;4.78;;
40707;SDS011;26392;42.696;23.350;2022-11-20T14:29:19;13.55;;;5.88;;
40707;SDS011;26392;42.696;23.350;2022-11-20T14:31:47;11.55;;;5.88;;
40707;SDS011;26392;42.696;23.350;2022-11-20T14:34:21;10.48;;;4.80;;
40707;SDS011;26392;42.696;23.350;2022-11-20T14:36:49;9.93;;;5.63;;
40707;SDS011;26392;42.696;23.350;2022-11-20T14:39:21;17.83;;;6.60;;
40707;SDS011;26392;42.696;23.350;2022-11-20T14:41:51;17.33;;;7.25;;
40707;SDS011;26392;42.696;23.350;2022-11-20T14:44:17;14.82;;;6.13;;
40707;SDS011;26392;42.696;23.350;2022-11-20T14:46:51;17.08;;;8.27;;
40707;SDS011;26392;42.696;23.350;2022-11-20T14:49:18;14.07;;;7.60;;
40707;SDS011;26392;42.696;23.350;2022-11-20T14:51:44;15.23;;;8.23;;
40707;SDS011;26392;42.696;23.350;2022-11-20T14:54:11;13.98;;;7.22;;
40707;SDS011;26392;42.696;23.350;2022-11-20T14:56:37;12.20;;;7.00;;
40707;SDS011;26392;42.696;23.350;2022-11-20T14:59:03;14.27;;;6.35;;
40707;SDS011;26392;42.696;23.350;2022-11-20T15:01:30;14.85;;;6.28;;
40707;SDS011;26392;42.696;23.350;2022-11-20T15:04:01;10.85;;;5.35;;
40707;SDS011;26392;42.696;23.350;2022-11-20T15:06:35;11.80;;;5.68;;
40707;SDS011;26392;42.696;23.350;2022-11-20T15:09:02;11.40;;;5.65;;
40707;SDS011;26392;42.696;23.350;2022-11-20T15:11:32;12.98;;;6.18;;
40707;SDS011;26392;42.696;23.350;2022-11-20T15:14:04;9.45;;;3.45;;
40707;SDS011;26392;42.696;23.350;2022-11-20T15:16:31;4.75;;;3.40;;
40707;SDS011;26392;42.696;23.350;2022-11-20T15:18:58;7.90;;;3.70;;
40707;SDS011;26392;42.696;23.350;2022-11-20T15:21:23;5.60;;;3.00;;
40707;SDS011;26392;42.696;23.350;2022-11-20T15:23:49;6.07;;;3.60;;
40707;SDS011;26392;42.696;23.350;2022-11-20T15:26:21;4.63;;;2.45;;
40707;SDS011;26392;42.696;23.350;2022-11-20T15:28:50;4.70;;;2.40;;
40707;SDS011;26392;42.696;23.350;2022-11-20T15:31:17;5.93;;;2.95;;
40707;SDS011;26392;42.696;23.350;2022-11-20T15:33:45;9.63;;;2.30;;
40707;SDS011;26392;42.696;23.350;2022-11-20T15:36:11;5.95;;;2.60;;
40707;SDS011;26392;42.696;23.350;2022-11-20T15:38:37;5.22;;;2.40;;
40707;SDS011;26392;42.696;23.350;2022-11-20T15:41:02;6.10;;;2.80;;
40707;SDS011;26392;42.696;23.350;2022-11-20T15:43:28;9.43;;;3.95;;
40707;SDS011;26392;42.696;23.350;2022-11-20T15:45:55;7.13;;;3.25;;
40707;SDS011;26392;42.696;23.350;2022-11-20T15:48:27;7.07;;;3.05;;
40707;SDS011;26392;42.696;23.350;2022-11-20T15:53:32;10.32;;;2.28;;
40707;SDS011;26392;42.696;23.350;2022-11-20T15:55:57;4.90;;;1.80;;
40707;SDS011;26392;42.696;23.350;2022-11-20T15:58:23;3.30;;;1.38;;
40707;SDS011;26392;42.696;23.350;2022-11-20T16:00:49;4.25;;;2.00;;
40707;SDS011;26392;42.696;23.350;2022-11-20T16:03:15;4.18;;;1.52;;
40707;SDS011;26392;42.696;23.350;2022-11-20T16:05:42;6.85;;;1.95;;
40707;SDS011;26392;42.696;23.350;2022-11-20T16:08:07;3.78;;;2.00;;
40707;SDS011;26392;42.696;23.350;2022-11-20T16:10:33;5.97;;;1.80;;
40707;SDS011;26392;42.696;23.350;2022-11-20T16:12:58;3.80;;;2.30;;
40707;SDS011;26392;42.696;23.350;2022-11-20T16:15:44;10.75;;;3.30;;
40707;SDS011;26392;42.696;23.350;2022-11-20T16:18:18;6.30;;;2.47;;
40707;SDS011;26392;42.696;23.350;2022-11-20T16:20:45;4.30;;;2.08;;
40707;SDS011;26392;42.696;23.350;2022-11-20T16:23:12;3.45;;;1.77;;
40707;SDS011;26392;42.696;23.350;2022-11-20T16:25:37;3.67;;;1.95;;
40707;SDS011;26392;42.696;23.350;2022-11-20T16:28:03;3.15;;;2.08;;
40707;SDS011;26392;42.696;23.350;2022-11-20T16:30:29;10.35;;;3.67;;
40707;SDS011;26392;42.696;23.350;2022-11-20T16:32:56;4.63;;;2.22;;